sensor_id;sensor_type;location;lat;lon;timestamp;temperature;humidity
15969;DHT22;8085;53.472;9.794;2023-05-10T00:00:10;14.70;99.90
15969;DHT22;8085;53.472;9.794;2023-05-10T00:02:37;14.60;99.90
15969;DHT22;8085;53.472;9.794;2023-05-10T00:05:05;14.60;99.90
15969;DHT22;8085;53.472;9.794;2023-05-10T00:07:34;14.60;99.90
15969;DHT22;8085;53.472;9.794;2023-05-10T00:10:01;14.50;99.90
15969;DHT22;8085;53.472;9.794;2023-05-10T00:12:28;14.50;99.90
15969;DHT22;8085;53.472;9.794;2023-05-10T00:14:54;14.50;99.90
15969;DHT22;8085;53.472;9.794;2023-05-10T00:17:21;14.40;99.90
15969;DHT22;8085;53.472;9.794;2023-05-10T00:19:48;14.40;99.90
15969;DHT22;8085;53.472;9.794;2023-05-10T00:22:15;14.30;99.90
15969;DHT22;8085;53.472;9.794;2023-05-10T00:24:43;14.30;99.90
15969;DHT22;8085;53.472;9.794;2023-05-10T00:27:10;14.30;99.90
15969;DHT22;8085;53.472;9.794;2023-05-10T00:29:37;14.30;99.90
15969;DHT22;8085;53.472;9.794;2023-05-10T00:32:04;14.30;99.90
15969;DHT22;8085;53.472;9.794;2023-05-10T00:34:32;14.20;99.90
15969;DHT22;8085;53.472;9.794;2023-05-10T00:36:58;14.20;99.90
15969;DHT22;8085;53.472;9.794;2023-05-10T00:39:25;14.10;99.90
15969;DHT22;8085;53.472;9.794;2023-05-10T00:41:55;14.00;99.90
15969;DHT22;8085;53.472;9.794;2023-05-10T00:44:22;13.90;99.90
15969;DHT22;8085;53.472;9.794;2023-05-10T00:46:49;13.90;99.90
15969;DHT22;8085;53.472;9.794;2023-05-10T00:49:16;13.80;99.90
15969;DHT22;8085;53.472;9.794;2023-05-10T00:51:44;13.70;99.90
15969;DHT22;8085;53.472;9.794;2023-05-10T00:54:18;13.70;99.90
15969;DHT22;8085;53.472;9.794;2023-05-10T00:56:46;13.60;99.90
15969;DHT22;8085;53.472;9.794;2023-05-10T00:59:16;13.50;99.90
15969;DHT22;8085;53.472;9.794;2023-05-10T01:01:43;13.50;99.90
15969;DHT22;8085;53.472;9.794;2023-05-10T01:04:10;13.40;99.90
15969;DHT22;8085;53.472;9.794;2023-05-10T01:06:38;13.40;99.90
15969;DHT22;8085;53.472;9.794;2023-05-10T01:09:05;13.40;99.90
15969;DHT22;8085;53.472;9.794;2023-05-10T01:11:32;13.40;99.90
15969;DHT22;8085;53.472;9.794;2023-05-10T01:13:59;13.30;99.90
15969;DHT22;8085;53.472;9.794;2023-05-10T01:16:29;13.20;99.90
15969;DHT22;8085;53.472;9.794;2023-05-10T01:18:56;13.30;99.90
15969;DHT22;8085;53.472;9.794;2023-05-10T01:21:30;13.20;99.90
15969;DHT22;8085;53.472;9.794;2023-05-10T01:24:38;13.20;99.90
15969;DHT22;8085;53.472;9.794;2023-05-10T01:27:20;13.10;99.90
15969;DHT22;8085;53.472;9.794;2023-05-10T01:32:58;13.10;99.90
15969;DHT22;8085;53.472;9.794;2023-05-10T01:35:32;13.10;99.90
15969;DHT22;8085;53.472;9.794;2023-05-10T01:38:14;13.10;99.90
15969;DHT22;8085;53.472;9.794;2023-05-10T01:40:48;13.10;99.90
15969;DHT22;8085;53.472;9.794;2023-05-10T01:43:22;13.10;99.90
15969;DHT22;8085;53.472;9.794;2023-05-10T01:45:59;13.10;99.90
15969;DHT22;8085;53.472;9.794;2023-05-10T01:48:32;13.10;99.90
15969;DHT22;8085;53.472;9.794;2023-05-10T01:51:00;13.10;99.90
15969;DHT22;8085;53.472;9.794;2023-05-10T01:53:27;13.10;99.90
15969;DHT22;8085;53.472;9.794;2023-05-10T01:55:55;13.10;99.90
15969;DHT22;8085;53.472;9.794;2023-05-10T01:58:25;13.10;99.90
15969;DHT22;8085;53.472;9.794;2023-05-10T02:00:54;13.10;99.90
15969;DHT22;8085;53.472;9.794;2023-05-10T02:03:24;13.10;99.90
15969;DHT22;8085;53.472;9.794;2023-05-10T02:05:54;13.10;99.90
15969;DHT22;8085;53.472;9.794;2023-05-10T02:08:23;13.00;99.90
15969;DHT22;8085;53.472;9.794;2023-05-10T02:10:53;13.00;99.90
15969;DHT22;8085;53.472;9.794;2023-05-10T02:13:21;12.90;99.90
15969;DHT22;8085;53.472;9.794;2023-05-10T02:15:50;12.90;99.90
15969;DHT22;8085;53.472;9.794;2023-05-10T02:18:18;12.90;99.90
15969;DHT22;8085;53.472;9.794;2023-05-10T02:20:46;12.80;99.90
15969;DHT22;8085;53.472;9.794;2023-05-10T02:23:17;12.80;99.90
15969;DHT22;8085;53.472;9.794;2023-05-10T02:25:45;12.80;99.90
15969;DHT22;8085;53.472;9.794;2023-05-10T02:28:13;12.80;99.90
15969;DHT22;8085;53.472;9.794;2023-05-10T02:30:41;12.80;99.90
15969;DHT22;8085;53.472;9.794;2023-05-10T02:33:09;12.70;99.90
15969;DHT22;8085;53.472;9.794;2023-05-10T02:35:38;12.70;99.90
15969;DHT22;8085;53.472;9.794;2023-05-10T02:38:05;12.80;99.90
15969;DHT22;8085;53.472;9.794;2023-05-10T02:40:36;12.70;99.90
15969;DHT22;8085;53.472;9.794;2023-05-10T02:43:04;12.80;99.90
15969;DHT22;8085;53.472;9.794;2023-05-10T02:45:35;12.80;99.90
15969;DHT22;8085;53.472;9.794;2023-05-10T02:48:04;12.80;99.90
15969;DHT22;8085;53.472;9.794;2023-05-10T02:50:33;12.80;99.90
15969;DHT22;8085;53.472;9.794;2023-05-10T02:53:01;12.80;99.90
15969;DHT22;8085;53.472;9.794;2023-05-10T02:55:35;12.80;99.90
15969;DHT22;8085;53.472;9.794;2023-05-10T02:58:03;12.80;99.90
15969;DHT22;8085;53.472;9.794;2023-05-10T03:00:31;12.80;99.90
15969;DHT22;8085;53.472;9.794;2023-05-10T03:02:58;12.70;99.90
15969;DHT22;8085;53.472;9.794;2023-05-10T03:05:25;12.70;99.90
15969;DHT22;8085;53.472;9.794;2023-05-10T03:07:53;12.60;99.90
15969;DHT22;8085;53.472;9.794;2023-05-10T03:10:21;12.60;99.90
15969;DHT22;8085;53.472;9.794;2023-05-10T03:13:01;12.60;99.90
15969;DHT22;8085;53.472;9.794;2023-05-10T03:15:37;12.60;99.90
15969;DHT22;8085;53.472;9.794;2023-05-10T03:18:11;12.60;99.90
15969;DHT22;8085;53.472;9.794;2023-05-10T03:20:42;12.50;99.90
15969;DHT22;8085;53.472;9.794;2023-05-10T03:23:13;12.60;99.90
15969;DHT22;8085;53.472;9.794;2023-05-10T03:25:47;12.60;99.90
15969;DHT22;8085;53.472;9.794;2023-05-10T03:28:18;12.60;99.90
15969;DHT22;8085;53.472;9.794;2023-05-10T03:30:46;12.50;99.90
15969;DHT22;8085;53.472;9.794;2023-05-10T03:33:13;12.50;99.90
15969;DHT22;8085;53.472;9.794;2023-05-10T03:35:40;12.40;99.90
15969;DHT22;8085;53.472;9.794;2023-05-10T03:38:07;12.50;99.90
15969;DHT22;8085;53.472;9.794;2023-05-10T03:40:34;12.50;99.90
15969;DHT22;8085;53.472;9.794;2023-05-10T03:43:01;12.50;99.90
15969;DHT22;8085;53.472;9.794;2023-05-10T03:45:29;12.40;99.90
15969;DHT22;8085;53.472;9.794;2023-05-10T03:47:57;12.40;99.90
15969;DHT22;8085;53.472;9.794;2023-05-10T03:50:24;12.40;99.90
15969;DHT22;8085;53.472;9.794;2023-05-10T03:52:52;12.30;99.90
15969;DHT22;8085;53.472;9.794;2023-05-10T03:55:19;12.40;99.90
15969;DHT22;8085;53.472;9.794;2023-05-10T03:57:46;12.40;99.90
15969;DHT22;8085;53.472;9.794;2023-05-10T04:00:15;12.40;99.90
15969;DHT22;8085;53.472;9.794;2023-05-10T04:02:44;12.40;99.90
15969;DHT22;8085;53.472;9.794;2023-05-10T04:05:11;12.40;99.90
15969;DHT22;8085;53.472;9.794;2023-05-10T04:07:38;12.40;99.90
15969;DHT22;8085;53.472;9.794;2023-05-10T04:10:06;12.40;99.90
15969;DHT22;8085;53.472;9.794;2023-05-10T04:12:33;12.40;99.90
15969;DHT22;8085;53.472;9.794;2023-05-10T04:15:00;12.30;99.90
15969;DHT22;8085;53.472;9.794;2023-05-10T04:17:27;12.40;99.90
15969;DHT22;8085;53.472;9.794;2023-05-10T04:19:55;12.50;99.90
15969;DHT22;8085;53.472;9.794;2023-05-10T04:22:23;12.50;99.90
15969;DHT22;8085;53.472;9.794;2023-05-10T04:24:50;12.50;99.90
15969;DHT22;8085;53.472;9.794;2023-05-10T04:27:16;12.50;99.90
15969;DHT22;8085;53.472;9.794;2023-05-10T04:29:43;12.50;99.90
15969;DHT22;8085;53.472;9.794;2023-05-10T04:32:10;12.50;99.90
15969;DHT22;8085;53.472;9.794;2023-05-10T04:34:37;12.60;99.90
15969;DHT22;8085;53.472;9.794;2023-05-10T04:37:05;12.60;99.90
15969;DHT22;8085;53.472;9.794;2023-05-10T04:39:33;12.60;99.90
15969;DHT22;8085;53.472;9.794;2023-05-10T04:42:00;12.70;99.90
15969;DHT22;8085;53.472;9.794;2023-05-10T04:44:28;12.80;99.90
15969;DHT22;8085;53.472;9.794;2023-05-10T04:46:55;13.00;99.90
15969;DHT22;8085;53.472;9.794;2023-05-10T04:49:22;13.30;99.90
15969;DHT22;8085;53.472;9.794;2023-05-10T04:51:49;13.60;99.90
15969;DHT22;8085;53.472;9.794;2023-05-10T04:54:17;14.10;99.90
15969;DHT22;8085;53.472;9.794;2023-05-10T04:56:44;14.50;99.90
15969;DHT22;8085;53.472;9.794;2023-05-10T04:59:11;15.20;99.90
15969;DHT22;8085;53.472;9.794;2023-05-10T05:01:38;16.10;99.90
15969;DHT22;8085;53.472;9.794;2023-05-10T05:04:05;16.30;99.90
15969;DHT22;8085;53.472;9.794;2023-05-10T05:06:32;16.20;99.90
15969;DHT22;8085;53.472;9.794;2023-05-10T05:08:59;16.30;99.90
15969;DHT22;8085;53.472;9.794;2023-05-10T05:11:27;16.60;99.90
15969;DHT22;8085;53.472;9.794;2023-05-10T05:13:54;16.50;99.90
15969;DHT22;8085;53.472;9.794;2023-05-10T05:16:21;16.50;99.90
15969;DHT22;8085;53.472;9.794;2023-05-10T05:18:48;15.70;99.90
15969;DHT22;8085;53.472;9.794;2023-05-10T05:21:15;14.80;99.90
15969;DHT22;8085;53.472;9.794;2023-05-10T05:23:42;14.30;99.90
15969;DHT22;8085;53.472;9.794;2023-05-10T05:26:09;13.80;99.90
15969;DHT22;8085;53.472;9.794;2023-05-10T05:28:38;13.60;99.90
15969;DHT22;8085;53.472;9.794;2023-05-10T05:31:05;13.50;99.90
15969;DHT22;8085;53.472;9.794;2023-05-10T05:33:33;13.50;99.90
15969;DHT22;8085;53.472;9.794;2023-05-10T05:36:01;13.40;99.90
15969;DHT22;8085;53.472;9.794;2023-05-10T05:38:28;13.50;99.90
15969;DHT22;8085;53.472;9.794;2023-05-10T05:40:55;13.70;99.90
15969;DHT22;8085;53.472;9.794;2023-05-10T05:43:23;13.80;99.90
15969;DHT22;8085;53.472;9.794;2023-05-10T05:45:52;13.90;99.90
15969;DHT22;8085;53.472;9.794;2023-05-10T05:48:19;13.80;99.90
15969;DHT22;8085;53.472;9.794;2023-05-10T05:50:45;13.80;99.90
15969;DHT22;8085;53.472;9.794;2023-05-10T05:53:12;13.80;99.90
15969;DHT22;8085;53.472;9.794;2023-05-10T05:55:39;13.80;99.90
15969;DHT22;8085;53.472;9.794;2023-05-10T05:58:06;13.80;99.90
15969;DHT22;8085;53.472;9.794;2023-05-10T06:00:33;13.80;99.90
15969;DHT22;8085;53.472;9.794;2023-05-10T06:03:02;13.70;99.90
15969;DHT22;8085;53.472;9.794;2023-05-10T06:05:29;13.70;99.90
15969;DHT22;8085;53.472;9.794;2023-05-10T06:07:55;13.70;99.90
15969;DHT22;8085;53.472;9.794;2023-05-10T06:10:22;13.80;99.90
15969;DHT22;8085;53.472;9.794;2023-05-10T06:12:50;13.90;99.90
15969;DHT22;8085;53.472;9.794;2023-05-10T06:15:18;13.90;99.90
15969;DHT22;8085;53.472;9.794;2023-05-10T06:17:45;14.00;99.90
15969;DHT22;8085;53.472;9.794;2023-05-10T06:20:16;14.00;99.90
15969;DHT22;8085;53.472;9.794;2023-05-10T06:22:43;14.00;99.90
15969;DHT22;8085;53.472;9.794;2023-05-10T06:25:30;14.00;99.90
15969;DHT22;8085;53.472;9.794;2023-05-10T06:27:58;14.00;99.90
15969;DHT22;8085;53.472;9.794;2023-05-10T06:30:25;14.10;99.90
15969;DHT22;8085;53.472;9.794;2023-05-10T06:32:54;14.10;99.90
15969;DHT22;8085;53.472;9.794;2023-05-10T06:35:23;14.20;99.90
15969;DHT22;8085;53.472;9.794;2023-05-10T06:37:50;14.40;99.90
15969;DHT22;8085;53.472;9.794;2023-05-10T06:40:18;14.50;99.90
15969;DHT22;8085;53.472;9.794;2023-05-10T06:42:44;14.70;99.90
15969;DHT22;8085;53.472;9.794;2023-05-10T06:45:12;14.70;99.90
15969;DHT22;8085;53.472;9.794;2023-05-10T06:47:39;14.70;99.90
15969;DHT22;8085;53.472;9.794;2023-05-10T06:50:07;14.80;99.90
15969;DHT22;8085;53.472;9.794;2023-05-10T06:52:35;14.90;99.90
15969;DHT22;8085;53.472;9.794;2023-05-10T06:55:03;14.90;99.90
15969;DHT22;8085;53.472;9.794;2023-05-10T06:57:30;14.90;99.90
15969;DHT22;8085;53.472;9.794;2023-05-10T06:59:57;14.90;99.90
15969;DHT22;8085;53.472;9.794;2023-05-10T07:02:24;15.00;99.90
15969;DHT22;8085;53.472;9.794;2023-05-10T07:04:50;15.00;99.90
15969;DHT22;8085;53.472;9.794;2023-05-10T07:07:18;15.00;99.90
15969;DHT22;8085;53.472;9.794;2023-05-10T07:09:46;15.00;99.90
15969;DHT22;8085;53.472;9.794;2023-05-10T07:12:13;15.00;99.90
15969;DHT22;8085;53.472;9.794;2023-05-10T07:14:40;15.10;99.90
15969;DHT22;8085;53.472;9.794;2023-05-10T07:17:06;15.10;99.90
15969;DHT22;8085;53.472;9.794;2023-05-10T07:19:33;15.00;99.90
15969;DHT22;8085;53.472;9.794;2023-05-10T07:22:00;15.00;99.90
15969;DHT22;8085;53.472;9.794;2023-05-10T07:24:27;15.10;99.90
15969;DHT22;8085;53.472;9.794;2023-05-10T07:26:56;15.20;99.90
15969;DHT22;8085;53.472;9.794;2023-05-10T07:29:22;15.30;99.90
15969;DHT22;8085;53.472;9.794;2023-05-10T07:31:49;15.30;99.90
15969;DHT22;8085;53.472;9.794;2023-05-10T07:34:16;15.30;99.90
15969;DHT22;8085;53.472;9.794;2023-05-10T07:36:43;15.30;99.90
15969;DHT22;8085;53.472;9.794;2023-05-10T07:39:10;15.20;99.90
15969;DHT22;8085;53.472;9.794;2023-05-10T07:41:37;15.10;99.90
15969;DHT22;8085;53.472;9.794;2023-05-10T07:44:06;15.10;99.90
15969;DHT22;8085;53.472;9.794;2023-05-10T07:46:33;15.00;1.00
15969;DHT22;8085;53.472;9.794;2023-05-10T07:49:00;15.00;99.90
15969;DHT22;8085;53.472;9.794;2023-05-10T07:51:26;14.90;1.00
15969;DHT22;8085;53.472;9.794;2023-05-10T07:53:54;14.80;1.00
15969;DHT22;8085;53.472;9.794;2023-05-10T07:56:22;14.70;1.00
15969;DHT22;8085;53.472;9.794;2023-05-10T07:58:50;14.80;26.10
15969;DHT22;8085;53.472;9.794;2023-05-10T08:01:19;14.80;99.90
15969;DHT22;8085;53.472;9.794;2023-05-10T08:03:46;14.80;99.90
15969;DHT22;8085;53.472;9.794;2023-05-10T08:06:13;14.70;99.90
15969;DHT22;8085;53.472;9.794;2023-05-10T08:08:41;14.70;99.90
15969;DHT22;8085;53.472;9.794;2023-05-10T08:11:08;14.80;1.00
15969;DHT22;8085;53.472;9.794;2023-05-10T08:13:35;14.60;1.00
15969;DHT22;8085;53.472;9.794;2023-05-10T08:16:02;14.70;1.00
15969;DHT22;8085;53.472;9.794;2023-05-10T08:18:30;14.70;1.00
15969;DHT22;8085;53.472;9.794;2023-05-10T08:20:57;14.60;99.90
15969;DHT22;8085;53.472;9.794;2023-05-10T08:23:24;14.50;1.00
15969;DHT22;8085;53.472;9.794;2023-05-10T08:25:51;14.30;1.00
15969;DHT22;8085;53.472;9.794;2023-05-10T08:28:18;14.40;1.00
15969;DHT22;8085;53.472;9.794;2023-05-10T08:30:45;14.40;1.00
15969;DHT22;8085;53.472;9.794;2023-05-10T08:33:12;14.40;1.00
15969;DHT22;8085;53.472;9.794;2023-05-10T08:35:40;14.40;1.00
15969;DHT22;8085;53.472;9.794;2023-05-10T08:38:07;14.40;1.00
15969;DHT22;8085;53.472;9.794;2023-05-10T08:40:34;14.50;1.00
15969;DHT22;8085;53.472;9.794;2023-05-10T08:43:05;14.60;1.00
15969;DHT22;8085;53.472;9.794;2023-05-10T08:45:35;14.60;1.00
15969;DHT22;8085;53.472;9.794;2023-05-10T08:48:05;14.70;1.00
15969;DHT22;8085;53.472;9.794;2023-05-10T08:50:36;14.70;1.00
15969;DHT22;8085;53.472;9.794;2023-05-10T08:53:06;14.50;1.00
15969;DHT22;8085;53.472;9.794;2023-05-10T08:55:36;14.50;1.00
15969;DHT22;8085;53.472;9.794;2023-05-10T08:58:04;14.50;1.00
15969;DHT22;8085;53.472;9.794;2023-05-10T09:00:31;14.60;1.00
15969;DHT22;8085;53.472;9.794;2023-05-10T09:02:59;14.60;1.00
15969;DHT22;8085;53.472;9.794;2023-05-10T09:05:27;14.60;1.00
15969;DHT22;8085;53.472;9.794;2023-05-10T09:07:54;14.60;1.00
15969;DHT22;8085;53.472;9.794;2023-05-10T09:10:23;14.50;1.00
15969;DHT22;8085;53.472;9.794;2023-05-10T09:12:53;14.50;1.00
15969;DHT22;8085;53.472;9.794;2023-05-10T09:15:22;14.50;1.00
15969;DHT22;8085;53.472;9.794;2023-05-10T09:17:49;14.30;1.00
15969;DHT22;8085;53.472;9.794;2023-05-10T09:20:16;14.10;1.00
15969;DHT22;8085;53.472;9.794;2023-05-10T09:22:43;14.00;1.00
15969;DHT22;8085;53.472;9.794;2023-05-10T09:25:12;14.00;1.00
15969;DHT22;8085;53.472;9.794;2023-05-10T09:27:41;13.90;1.00
15969;DHT22;8085;53.472;9.794;2023-05-10T09:30:08;13.90;1.00
15969;DHT22;8085;53.472;9.794;2023-05-10T09:32:40;14.00;1.00
15969;DHT22;8085;53.472;9.794;2023-05-10T09:35:08;13.90;1.00
15969;DHT22;8085;53.472;9.794;2023-05-10T09:37:35;13.90;1.00
15969;DHT22;8085;53.472;9.794;2023-05-10T09:40:05;13.90;17.00
15969;DHT22;8085;53.472;9.794;2023-05-10T09:42:33;13.90;26.30
15969;DHT22;8085;53.472;9.794;2023-05-10T09:45:03;13.90;46.70
15969;DHT22;8085;53.472;9.794;2023-05-10T09:47:32;13.80;59.80
15969;DHT22;8085;53.472;9.794;2023-05-10T09:50:00;13.80;82.40
15969;DHT22;8085;53.472;9.794;2023-05-10T09:52:46;13.70;76.40
15969;DHT22;8085;53.472;9.794;2023-05-10T09:55:15;13.60;95.90
15969;DHT22;8085;53.472;9.794;2023-05-10T09:57:42;13.50;98.60
15969;DHT22;8085;53.472;9.794;2023-05-10T10:00:18;13.50;99.90
15969;DHT22;8085;53.472;9.794;2023-05-10T10:02:47;13.30;99.90
15969;DHT22;8085;53.472;9.794;2023-05-10T10:05:14;13.30;99.90
15969;DHT22;8085;53.472;9.794;2023-05-10T10:07:42;13.20;99.90
15969;DHT22;8085;53.472;9.794;2023-05-10T10:10:10;13.20;99.90
15969;DHT22;8085;53.472;9.794;2023-05-10T10:12:41;13.20;99.90
15969;DHT22;8085;53.472;9.794;2023-05-10T10:15:10;13.20;99.90
15969;DHT22;8085;53.472;9.794;2023-05-10T10:17:37;13.20;99.90
15969;DHT22;8085;53.472;9.794;2023-05-10T10:20:06;13.10;99.90
15969;DHT22;8085;53.472;9.794;2023-05-10T10:22:34;13.10;99.90
15969;DHT22;8085;53.472;9.794;2023-05-10T10:25:00;13.00;99.90
15969;DHT22;8085;53.472;9.794;2023-05-10T10:27:45;13.00;99.90
15969;DHT22;8085;53.472;9.794;2023-05-10T10:30:35;13.00;99.90
15969;DHT22;8085;53.472;9.794;2023-05-10T10:33:29;13.00;99.90
15969;DHT22;8085;53.472;9.794;2023-05-10T10:35:59;12.90;99.90
15969;DHT22;8085;53.472;9.794;2023-05-10T10:38:37;13.00;99.90
15969;DHT22;8085;53.472;9.794;2023-05-10T10:45:43;13.10;99.90
15969;DHT22;8085;53.472;9.794;2023-05-10T10:49:31;13.30;99.90
15969;DHT22;8085;53.472;9.794;2023-05-10T10:56:38;13.40;99.90
15969;DHT22;8085;53.472;9.794;2023-05-10T11:49:00;13.70;99.90
15969;DHT22;8085;53.472;9.794;2023-05-10T11:51:33;13.80;99.90
15969;DHT22;8085;53.472;9.794;2023-05-10T11:54:05;14.00;99.90
15969;DHT22;8085;53.472;9.794;2023-05-10T11:56:41;14.00;99.90
15969;DHT22;8085;53.472;9.794;2023-05-10T11:59:08;13.90;99.90
15969;DHT22;8085;53.472;9.794;2023-05-10T12:01:36;14.00;99.90
15969;DHT22;8085;53.472;9.794;2023-05-10T12:04:22;13.90;99.90
15969;DHT22;8085;53.472;9.794;2023-05-10T12:06:53;13.90;99.90
15969;DHT22;8085;53.472;9.794;2023-05-10T12:09:22;14.00;99.90
15969;DHT22;8085;53.472;9.794;2023-05-10T12:12:19;14.10;99.90
15969;DHT22;8085;53.472;9.794;2023-05-10T12:15:18;14.20;99.90
15969;DHT22;8085;53.472;9.794;2023-05-10T12:45:11;15.10;99.90
15969;DHT22;8085;53.472;9.794;2023-05-10T13:53:47;17.00;17.80
15969;DHT22;8085;53.472;9.794;2023-05-10T13:56:14;17.00;9.70
15969;DHT22;8085;53.472;9.794;2023-05-10T13:58:41;17.20;35.30
15969;DHT22;8085;53.472;9.794;2023-05-10T14:01:08;17.20;4.60
15969;DHT22;8085;53.472;9.794;2023-05-10T14:03:35;17.20;3.70
15969;DHT22;8085;53.472;9.794;2023-05-10T14:06:02;17.10;7.00
15969;DHT22;8085;53.472;9.794;2023-05-10T14:08:34;17.10;13.30
15969;DHT22;8085;53.472;9.794;2023-05-10T14:11:02;17.10;1.00
15969;DHT22;8085;53.472;9.794;2023-05-10T14:21:01;17.50;1.00
15969;DHT22;8085;53.472;9.794;2023-05-10T14:27:37;17.50;1.00
15969;DHT22;8085;53.472;9.794;2023-05-10T14:31:02;17.40;1.00
15969;DHT22;8085;53.472;9.794;2023-05-10T14:34:05;17.30;1.00
15969;DHT22;8085;53.472;9.794;2023-05-10T14:36:49;17.20;1.00
15969;DHT22;8085;53.472;9.794;2023-05-10T16:10:46;15.90;99.90
15969;DHT22;8085;53.472;9.794;2023-05-10T16:13:13;16.00;99.90
15969;DHT22;8085;53.472;9.794;2023-05-10T16:15:41;16.00;99.90
15969;DHT22;8085;53.472;9.794;2023-05-10T16:18:08;16.00;99.90
15969;DHT22;8085;53.472;9.794;2023-05-10T16:20:35;16.00;99.90
15969;DHT22;8085;53.472;9.794;2023-05-10T16:23:03;16.00;99.90
15969;DHT22;8085;53.472;9.794;2023-05-10T16:25:30;16.00;99.90
15969;DHT22;8085;53.472;9.794;2023-05-10T16:27:59;16.10;99.90
15969;DHT22;8085;53.472;9.794;2023-05-10T16:30:26;16.10;99.90
15969;DHT22;8085;53.472;9.794;2023-05-10T16:32:55;16.00;99.90
15969;DHT22;8085;53.472;9.794;2023-05-10T16:35:22;15.90;99.90
15969;DHT22;8085;53.472;9.794;2023-05-10T16:37:49;15.80;99.90
15969;DHT22;8085;53.472;9.794;2023-05-10T16:40:16;15.80;99.90
15969;DHT22;8085;53.472;9.794;2023-05-10T16:42:44;15.80;99.90
15969;DHT22;8085;53.472;9.794;2023-05-10T16:45:13;15.80;99.90
15969;DHT22;8085;53.472;9.794;2023-05-10T16:47:41;15.80;99.90
15969;DHT22;8085;53.472;9.794;2023-05-10T16:50:08;15.80;99.90
15969;DHT22;8085;53.472;9.794;2023-05-10T16:52:35;15.80;99.90
15969;DHT22;8085;53.472;9.794;2023-05-10T16:55:03;15.80;99.90
15969;DHT22;8085;53.472;9.794;2023-05-10T16:57:30;15.60;99.90
15969;DHT22;8085;53.472;9.794;2023-05-10T16:59:57;15.50;99.90
15969;DHT22;8085;53.472;9.794;2023-05-10T17:02:26;15.40;99.90
15969;DHT22;8085;53.472;9.794;2023-05-10T17:04:53;15.30;99.90
15969;DHT22;8085;53.472;9.794;2023-05-10T17:07:21;15.30;99.90
15969;DHT22;8085;53.472;9.794;2023-05-10T17:09:48;15.20;99.90
15969;DHT22;8085;53.472;9.794;2023-05-10T17:12:17;15.10;99.90
15969;DHT22;8085;53.472;9.794;2023-05-10T17:14:44;15.10;99.90
15969;DHT22;8085;53.472;9.794;2023-05-10T17:17:11;15.00;99.90
15969;DHT22;8085;53.472;9.794;2023-05-10T17:19:39;14.80;99.90
15969;DHT22;8085;53.472;9.794;2023-05-10T17:22:09;14.80;99.90
15969;DHT22;8085;53.472;9.794;2023-05-10T17:24:36;14.70;99.90
15969;DHT22;8085;53.472;9.794;2023-05-10T17:27:03;14.60;99.90
15969;DHT22;8085;53.472;9.794;2023-05-10T17:29:30;14.50;99.90
15969;DHT22;8085;53.472;9.794;2023-05-10T17:32:00;14.50;99.90
15969;DHT22;8085;53.472;9.794;2023-05-10T17:34:27;14.50;99.90
15969;DHT22;8085;53.472;9.794;2023-05-10T17:37:00;14.50;99.90
15969;DHT22;8085;53.472;9.794;2023-05-10T17:39:27;14.50;99.90
15969;DHT22;8085;53.472;9.794;2023-05-10T17:41:59;14.50;99.90
15969;DHT22;8085;53.472;9.794;2023-05-10T17:44:26;14.50;99.90
15969;DHT22;8085;53.472;9.794;2023-05-10T17:46:53;14.50;99.90
15969;DHT22;8085;53.472;9.794;2023-05-10T17:49:22;14.50;99.90
15969;DHT22;8085;53.472;9.794;2023-05-10T17:51:50;14.50;99.90
15969;DHT22;8085;53.472;9.794;2023-05-10T17:54:19;14.50;99.90
15969;DHT22;8085;53.472;9.794;2023-05-10T17:56:48;14.50;99.90
15969;DHT22;8085;53.472;9.794;2023-05-10T17:59:18;14.50;99.90
15969;DHT22;8085;53.472;9.794;2023-05-10T18:01:46;14.50;99.90
15969;DHT22;8085;53.472;9.794;2023-05-10T18:04:13;14.50;99.90
15969;DHT22;8085;53.472;9.794;2023-05-10T18:06:40;14.40;99.90
15969;DHT22;8085;53.472;9.794;2023-05-10T18:09:07;14.30;99.90
15969;DHT22;8085;53.472;9.794;2023-05-10T18:11:35;14.40;99.90
15969;DHT22;8085;53.472;9.794;2023-05-10T18:14:03;14.30;99.90
15969;DHT22;8085;53.472;9.794;2023-05-10T18:16:30;14.20;99.90
15969;DHT22;8085;53.472;9.794;2023-05-10T18:18:59;14.30;99.90
15969;DHT22;8085;53.472;9.794;2023-05-10T18:21:26;14.20;99.90
15969;DHT22;8085;53.472;9.794;2023-05-10T18:23:53;14.20;99.90
15969;DHT22;8085;53.472;9.794;2023-05-10T18:26:23;14.20;99.90
15969;DHT22;8085;53.472;9.794;2023-05-10T18:28:59;14.20;99.90
15969;DHT22;8085;53.472;9.794;2023-05-10T18:31:30;14.10;99.90
15969;DHT22;8085;53.472;9.794;2023-05-10T18:33:58;14.10;99.90
15969;DHT22;8085;53.472;9.794;2023-05-10T18:36:25;14.00;99.90
15969;DHT22;8085;53.472;9.794;2023-05-10T18:38:53;14.00;99.90
15969;DHT22;8085;53.472;9.794;2023-05-10T18:41:20;14.00;99.90
15969;DHT22;8085;53.472;9.794;2023-05-10T18:43:47;13.90;99.90
15969;DHT22;8085;53.472;9.794;2023-05-10T18:46:15;14.00;99.90
15969;DHT22;8085;53.472;9.794;2023-05-10T18:48:42;13.90;99.90
15969;DHT22;8085;53.472;9.794;2023-05-10T18:51:10;14.00;99.90
15969;DHT22;8085;53.472;9.794;2023-05-10T18:53:38;13.90;99.90
15969;DHT22;8085;53.472;9.794;2023-05-10T18:56:05;13.90;99.90
15969;DHT22;8085;53.472;9.794;2023-05-10T18:58:32;13.90;99.90
15969;DHT22;8085;53.472;9.794;2023-05-10T19:01:00;13.80;99.90
15969;DHT22;8085;53.472;9.794;2023-05-10T19:03:29;13.80;99.90
15969;DHT22;8085;53.472;9.794;2023-05-10T19:05:56;13.70;99.90
15969;DHT22;8085;53.472;9.794;2023-05-10T19:08:23;13.70;99.90
15969;DHT22;8085;53.472;9.794;2023-05-10T19:10:50;13.70;99.90
15969;DHT22;8085;53.472;9.794;2023-05-10T19:13:17;13.70;99.90
15969;DHT22;8085;53.472;9.794;2023-05-10T19:15:44;13.70;99.90
15969;DHT22;8085;53.472;9.794;2023-05-10T19:18:11;13.70;99.90
15969;DHT22;8085;53.472;9.794;2023-05-10T19:20:39;13.70;99.90
15969;DHT22;8085;53.472;9.794;2023-05-10T19:23:06;13.60;99.90
15969;DHT22;8085;53.472;9.794;2023-05-10T19:25:33;13.60;99.90
15969;DHT22;8085;53.472;9.794;2023-05-10T19:28:03;13.60;99.90
15969;DHT22;8085;53.472;9.794;2023-05-10T19:30:30;13.50;99.90
15969;DHT22;8085;53.472;9.794;2023-05-10T19:32:57;13.50;99.90
15969;DHT22;8085;53.472;9.794;2023-05-10T19:35:24;13.40;99.90
15969;DHT22;8085;53.472;9.794;2023-05-10T19:37:52;13.40;99.90
15969;DHT22;8085;53.472;9.794;2023-05-10T19:40:19;13.40;99.90
15969;DHT22;8085;53.472;9.794;2023-05-10T19:42:46;13.40;99.90
15969;DHT22;8085;53.472;9.794;2023-05-10T19:45:13;13.40;99.90
15969;DHT22;8085;53.472;9.794;2023-05-10T19:47:40;13.40;99.90
15969;DHT22;8085;53.472;9.794;2023-05-10T19:50:08;13.40;99.90
15969;DHT22;8085;53.472;9.794;2023-05-10T19:52:38;13.40;99.90
15969;DHT22;8085;53.472;9.794;2023-05-10T19:55:14;13.30;99.90
15969;DHT22;8085;53.472;9.794;2023-05-10T19:58:01;13.30;99.90
15969;DHT22;8085;53.472;9.794;2023-05-10T20:00:32;13.30;99.90
15969;DHT22;8085;53.472;9.794;2023-05-10T20:03:13;13.30;99.90
15969;DHT22;8085;53.472;9.794;2023-05-10T20:05:44;13.20;99.90
15969;DHT22;8085;53.472;9.794;2023-05-10T20:08:11;13.20;99.90
15969;DHT22;8085;53.472;9.794;2023-05-10T20:10:39;13.10;99.90
15969;DHT22;8085;53.472;9.794;2023-05-10T20:13:07;13.00;99.90
15969;DHT22;8085;53.472;9.794;2023-05-10T20:15:34;13.00;99.90
15969;DHT22;8085;53.472;9.794;2023-05-10T20:18:01;13.00;99.90